sensor_id;sensor_type;location;lat;lon;timestamp;temperature;humidity
9790;DHT22;4934;50.852;8.098;2023-04-06T00:00:47;-1.60;99.90
9790;DHT22;4934;50.852;8.098;2023-04-06T00:03:12;-1.70;99.90
9790;DHT22;4934;50.852;8.098;2023-04-06T00:05:38;-1.70;99.90
9790;DHT22;4934;50.852;8.098;2023-04-06T00:08:04;-1.80;99.90
9790;DHT22;4934;50.852;8.098;2023-04-06T00:10:29;-1.80;99.90
9790;DHT22;4934;50.852;8.098;2023-04-06T00:12:55;-1.70;99.90
9790;DHT22;4934;50.852;8.098;2023-04-06T00:15:22;-1.70;99.90
9790;DHT22;4934;50.852;8.098;2023-04-06T00:17:48;-1.70;99.90
9790;DHT22;4934;50.852;8.098;2023-04-06T00:20:14;-1.80;99.90
9790;DHT22;4934;50.852;8.098;2023-04-06T00:22:40;-1.80;99.90
9790;DHT22;4934;50.852;8.098;2023-04-06T00:25:06;-1.90;99.90
9790;DHT22;4934;50.852;8.098;2023-04-06T00:27:31;-1.90;99.90
9790;DHT22;4934;50.852;8.098;2023-04-06T00:29:57;-1.90;99.90
9790;DHT22;4934;50.852;8.098;2023-04-06T00:32:22;-1.90;99.90
9790;DHT22;4934;50.852;8.098;2023-04-06T00:34:48;-1.90;99.90
9790;DHT22;4934;50.852;8.098;2023-04-06T00:37:14;-1.90;99.90
9790;DHT22;4934;50.852;8.098;2023-04-06T00:39:39;-1.90;99.90
9790;DHT22;4934;50.852;8.098;2023-04-06T00:42:11;-1.90;99.90
9790;DHT22;4934;50.852;8.098;2023-04-06T00:44:40;-2.00;99.90
9790;DHT22;4934;50.852;8.098;2023-04-06T00:47:07;-2.00;99.90
9790;DHT22;4934;50.852;8.098;2023-04-06T00:49:33;-2.00;99.90
9790;DHT22;4934;50.852;8.098;2023-04-06T00:51:59;-2.10;99.90
9790;DHT22;4934;50.852;8.098;2023-04-06T00:54:25;-2.10;99.90
9790;DHT22;4934;50.852;8.098;2023-04-06T00:56:51;-2.10;99.90
9790;DHT22;4934;50.852;8.098;2023-04-06T00:59:17;-2.10;99.90
9790;DHT22;4934;50.852;8.098;2023-04-06T01:01:42;-2.10;99.90
9790;DHT22;4934;50.852;8.098;2023-04-06T01:04:08;-2.20;99.90
9790;DHT22;4934;50.852;8.098;2023-04-06T01:06:34;-2.20;99.90
9790;DHT22;4934;50.852;8.098;2023-04-06T01:08:59;-2.20;99.90
9790;DHT22;4934;50.852;8.098;2023-04-06T01:11:25;-2.30;99.90
9790;DHT22;4934;50.852;8.098;2023-04-06T01:13:52;-2.30;99.90
9790;DHT22;4934;50.852;8.098;2023-04-06T01:16:17;-2.30;99.90
9790;DHT22;4934;50.852;8.098;2023-04-06T01:18:43;-2.40;99.90
9790;DHT22;4934;50.852;8.098;2023-04-06T01:21:09;-2.40;99.90
9790;DHT22;4934;50.852;8.098;2023-04-06T01:23:44;-2.40;99.90
9790;DHT22;4934;50.852;8.098;2023-04-06T01:26:12;-2.50;99.90
9790;DHT22;4934;50.852;8.098;2023-04-06T01:28:38;-2.50;99.90
9790;DHT22;4934;50.852;8.098;2023-04-06T01:31:05;-2.50;99.90
9790;DHT22;4934;50.852;8.098;2023-04-06T01:33:31;-2.50;99.90
9790;DHT22;4934;50.852;8.098;2023-04-06T01:35:57;-2.50;99.90
9790;DHT22;4934;50.852;8.098;2023-04-06T01:38:22;-2.50;99.90
9790;DHT22;4934;50.852;8.098;2023-04-06T01:40:48;-2.50;99.90
9790;DHT22;4934;50.852;8.098;2023-04-06T01:43:13;-2.50;99.90
9790;DHT22;4934;50.852;8.098;2023-04-06T01:45:39;-2.50;99.90
9790;DHT22;4934;50.852;8.098;2023-04-06T01:48:07;-2.50;99.90
9790;DHT22;4934;50.852;8.098;2023-04-06T01:50:32;-2.50;99.90
9790;DHT22;4934;50.852;8.098;2023-04-06T01:52:58;-2.60;99.90
9790;DHT22;4934;50.852;8.098;2023-04-06T01:55:23;-2.60;99.90
9790;DHT22;4934;50.852;8.098;2023-04-06T01:57:49;-2.60;99.90
9790;DHT22;4934;50.852;8.098;2023-04-06T02:00:16;-2.50;99.90
9790;DHT22;4934;50.852;8.098;2023-04-06T02:02:41;-2.50;99.90
9790;DHT22;4934;50.852;8.098;2023-04-06T02:05:07;-2.50;99.90
9790;DHT22;4934;50.852;8.098;2023-04-06T02:07:33;-2.60;99.90
9790;DHT22;4934;50.852;8.098;2023-04-06T02:09:59;-2.60;99.90
9790;DHT22;4934;50.852;8.098;2023-04-06T02:12:25;-2.70;99.90
9790;DHT22;4934;50.852;8.098;2023-04-06T02:14:50;-2.70;99.90
9790;DHT22;4934;50.852;8.098;2023-04-06T02:17:16;-2.70;99.90
9790;DHT22;4934;50.852;8.098;2023-04-06T02:19:42;-2.80;99.90
9790;DHT22;4934;50.852;8.098;2023-04-06T02:22:09;-2.80;99.90
9790;DHT22;4934;50.852;8.098;2023-04-06T02:24:35;-2.80;99.90
9790;DHT22;4934;50.852;8.098;2023-04-06T02:27:01;-2.80;99.90
9790;DHT22;4934;50.852;8.098;2023-04-06T02:29:26;-2.80;99.90
9790;DHT22;4934;50.852;8.098;2023-04-06T02:31:52;-2.80;99.90
9790;DHT22;4934;50.852;8.098;2023-04-06T02:34:17;-2.80;99.90
9790;DHT22;4934;50.852;8.098;2023-04-06T02:36:44;-2.80;99.90
9790;DHT22;4934;50.852;8.098;2023-04-06T02:39:13;-2.90;99.90
9790;DHT22;4934;50.852;8.098;2023-04-06T02:41:39;-2.90;99.90
9790;DHT22;4934;50.852;8.098;2023-04-06T02:44:07;-3.00;99.90
9790;DHT22;4934;50.852;8.098;2023-04-06T02:46:33;-3.00;99.90
9790;DHT22;4934;50.852;8.098;2023-04-06T02:48:59;-3.00;99.90
9790;DHT22;4934;50.852;8.098;2023-04-06T02:51:26;-3.00;99.90
9790;DHT22;4934;50.852;8.098;2023-04-06T02:53:52;-3.00;99.90
9790;DHT22;4934;50.852;8.098;2023-04-06T02:56:18;-3.10;99.90
9790;DHT22;4934;50.852;8.098;2023-04-06T02:58:43;-3.10;99.90
9790;DHT22;4934;50.852;8.098;2023-04-06T03:01:09;-3.20;99.90
9790;DHT22;4934;50.852;8.098;2023-04-06T03:03:34;-3.20;99.90
9790;DHT22;4934;50.852;8.098;2023-04-06T03:06:00;-3.20;99.90
9790;DHT22;4934;50.852;8.098;2023-04-06T03:08:26;-3.20;99.90
9790;DHT22;4934;50.852;8.098;2023-04-06T03:10:51;-3.20;99.90
9790;DHT22;4934;50.852;8.098;2023-04-06T03:13:17;-3.10;99.90
9790;DHT22;4934;50.852;8.098;2023-04-06T03:15:43;-3.10;99.90
9790;DHT22;4934;50.852;8.098;2023-04-06T03:18:08;-3.10;99.90
9790;DHT22;4934;50.852;8.098;2023-04-06T03:20:34;-3.10;99.90
9790;DHT22;4934;50.852;8.098;2023-04-06T03:22:59;-3.20;99.90
9790;DHT22;4934;50.852;8.098;2023-04-06T03:25:25;-3.20;99.90
9790;DHT22;4934;50.852;8.098;2023-04-06T03:27:51;-3.20;99.90
9790;DHT22;4934;50.852;8.098;2023-04-06T03:30:17;-3.30;99.90
9790;DHT22;4934;50.852;8.098;2023-04-06T03:32:43;-3.30;99.90
9790;DHT22;4934;50.852;8.098;2023-04-06T03:35:09;-3.40;99.90
9790;DHT22;4934;50.852;8.098;2023-04-06T03:37:35;-3.40;99.90
9790;DHT22;4934;50.852;8.098;2023-04-06T03:40:01;-3.40;99.90
9790;DHT22;4934;50.852;8.098;2023-04-06T03:42:27;-3.40;99.90
9790;DHT22;4934;50.852;8.098;2023-04-06T03:44:52;-3.40;99.90
9790;DHT22;4934;50.852;8.098;2023-04-06T03:47:18;-3.30;99.90
9790;DHT22;4934;50.852;8.098;2023-04-06T03:49:44;-3.30;99.90
9790;DHT22;4934;50.852;8.098;2023-04-06T03:52:09;-3.30;99.90
9790;DHT22;4934;50.852;8.098;2023-04-06T03:54:35;-3.20;99.90
9790;DHT22;4934;50.852;8.098;2023-04-06T03:57:01;-3.20;99.90
9790;DHT22;4934;50.852;8.098;2023-04-06T03:59:27;-3.10;99.90
9790;DHT22;4934;50.852;8.098;2023-04-06T04:01:52;-3.10;99.90
9790;DHT22;4934;50.852;8.098;2023-04-06T04:04:18;-3.20;99.90
9790;DHT22;4934;50.852;8.098;2023-04-06T04:06:44;-3.20;99.90
9790;DHT22;4934;50.852;8.098;2023-04-06T04:09:09;-3.10;99.90
9790;DHT22;4934;50.852;8.098;2023-04-06T04:11:35;-3.20;99.90
9790;DHT22;4934;50.852;8.098;2023-04-06T04:14:01;-3.20;99.90
9790;DHT22;4934;50.852;8.098;2023-04-06T04:16:26;-3.30;99.90
9790;DHT22;4934;50.852;8.098;2023-04-06T04:18:52;-3.20;99.90
9790;DHT22;4934;50.852;8.098;2023-04-06T04:21:17;-3.20;99.90
9790;DHT22;4934;50.852;8.098;2023-04-06T04:23:43;-3.30;99.90
9790;DHT22;4934;50.852;8.098;2023-04-06T04:26:09;-3.30;99.90
9790;DHT22;4934;50.852;8.098;2023-04-06T04:28:34;-3.30;99.90
9790;DHT22;4934;50.852;8.098;2023-04-06T04:31:00;-3.30;99.90
9790;DHT22;4934;50.852;8.098;2023-04-06T04:33:26;-3.30;99.90
9790;DHT22;4934;50.852;8.098;2023-04-06T04:35:51;-3.40;99.90
9790;DHT22;4934;50.852;8.098;2023-04-06T04:38:17;-3.40;99.90
9790;DHT22;4934;50.852;8.098;2023-04-06T04:40:46;-3.40;99.90
9790;DHT22;4934;50.852;8.098;2023-04-06T04:43:11;-3.40;99.90
9790;DHT22;4934;50.852;8.098;2023-04-06T04:45:37;-3.40;99.90
9790;DHT22;4934;50.852;8.098;2023-04-06T04:48:02;-3.40;99.90
9790;DHT22;4934;50.852;8.098;2023-04-06T04:50:30;-3.40;99.90
9790;DHT22;4934;50.852;8.098;2023-04-06T04:52:55;-3.40;99.90
9790;DHT22;4934;50.852;8.098;2023-04-06T04:55:21;-3.40;99.90
9790;DHT22;4934;50.852;8.098;2023-04-06T04:57:47;-3.30;99.90
9790;DHT22;4934;50.852;8.098;2023-04-06T05:00:13;-3.30;99.90
9790;DHT22;4934;50.852;8.098;2023-04-06T05:02:38;-3.40;99.90
9790;DHT22;4934;50.852;8.098;2023-04-06T05:05:04;-3.40;99.90
9790;DHT22;4934;50.852;8.098;2023-04-06T05:07:30;-3.30;99.90
9790;DHT22;4934;50.852;8.098;2023-04-06T05:09:56;-3.30;99.90
9790;DHT22;4934;50.852;8.098;2023-04-06T05:12:21;-3.20;99.90
9790;DHT22;4934;50.852;8.098;2023-04-06T05:14:47;-3.20;99.90
9790;DHT22;4934;50.852;8.098;2023-04-06T05:17:13;-3.10;99.90
9790;DHT22;4934;50.852;8.098;2023-04-06T05:19:39;-3.10;99.90
9790;DHT22;4934;50.852;8.098;2023-04-06T05:22:04;-2.90;99.90
9790;DHT22;4934;50.852;8.098;2023-04-06T05:24:30;-3.00;99.90
9790;DHT22;4934;50.852;8.098;2023-04-06T05:26:57;-3.00;99.90
9790;DHT22;4934;50.852;8.098;2023-04-06T05:29:22;-3.10;99.90
9790;DHT22;4934;50.852;8.098;2023-04-06T05:31:48;-3.10;99.90
9790;DHT22;4934;50.852;8.098;2023-04-06T05:34:13;-3.00;99.90
9790;DHT22;4934;50.852;8.098;2023-04-06T05:36:39;-2.90;99.90
9790;DHT22;4934;50.852;8.098;2023-04-06T05:39:06;-2.80;99.90
9790;DHT22;4934;50.852;8.098;2023-04-06T05:41:32;-2.70;99.90
9790;DHT22;4934;50.852;8.098;2023-04-06T05:43:58;-2.60;99.90
9790;DHT22;4934;50.852;8.098;2023-04-06T05:46:24;-2.50;99.90
9790;DHT22;4934;50.852;8.098;2023-04-06T05:48:49;-2.50;99.90
9790;DHT22;4934;50.852;8.098;2023-04-06T05:51:15;-2.50;99.90
9790;DHT22;4934;50.852;8.098;2023-04-06T05:53:40;-2.30;99.90
9790;DHT22;4934;50.852;8.098;2023-04-06T05:56:06;-2.00;99.90
9790;DHT22;4934;50.852;8.098;2023-04-06T05:58:32;-1.90;99.90
9790;DHT22;4934;50.852;8.098;2023-04-06T06:00:58;-1.80;99.90
9790;DHT22;4934;50.852;8.098;2023-04-06T06:03:24;-1.80;99.90
9790;DHT22;4934;50.852;8.098;2023-04-06T06:05:50;-1.70;99.90
9790;DHT22;4934;50.852;8.098;2023-04-06T06:08:15;-1.40;99.90
9790;DHT22;4934;50.852;8.098;2023-04-06T06:10:41;-1.20;99.90
9790;DHT22;4934;50.852;8.098;2023-04-06T06:13:07;-0.90;99.90
9790;DHT22;4934;50.852;8.098;2023-04-06T06:15:33;-0.70;99.90
9790;DHT22;4934;50.852;8.098;2023-04-06T06:17:58;-0.50;99.90
9790;DHT22;4934;50.852;8.098;2023-04-06T06:20:24;-0.30;99.90
9790;DHT22;4934;50.852;8.098;2023-04-06T06:22:50;-0.10;99.90
9790;DHT22;4934;50.852;8.098;2023-04-06T06:25:15;0.10;99.90
9790;DHT22;4934;50.852;8.098;2023-04-06T06:27:41;0.20;99.90
9790;DHT22;4934;50.852;8.098;2023-04-06T06:30:08;0.40;99.90
9790;DHT22;4934;50.852;8.098;2023-04-06T06:32:33;0.60;99.90
9790;DHT22;4934;50.852;8.098;2023-04-06T06:34:59;0.80;99.90
9790;DHT22;4934;50.852;8.098;2023-04-06T06:37:25;1.00;99.90
9790;DHT22;4934;50.852;8.098;2023-04-06T06:39:51;1.10;99.90
9790;DHT22;4934;50.852;8.098;2023-04-06T06:42:16;1.20;99.90
9790;DHT22;4934;50.852;8.098;2023-04-06T06:44:42;1.30;99.90
9790;DHT22;4934;50.852;8.098;2023-04-06T06:47:07;1.40;99.90
9790;DHT22;4934;50.852;8.098;2023-04-06T06:49:33;1.50;99.90
9790;DHT22;4934;50.852;8.098;2023-04-06T06:51:58;1.50;99.90
9790;DHT22;4934;50.852;8.098;2023-04-06T06:54:24;1.70;99.90
9790;DHT22;4934;50.852;8.098;2023-04-06T06:56:50;1.90;99.90
9790;DHT22;4934;50.852;8.098;2023-04-06T06:59:15;2.00;99.90
9790;DHT22;4934;50.852;8.098;2023-04-06T07:01:42;2.20;99.90
9790;DHT22;4934;50.852;8.098;2023-04-06T07:04:07;2.30;99.90
9790;DHT22;4934;50.852;8.098;2023-04-06T07:06:35;2.40;99.90
9790;DHT22;4934;50.852;8.098;2023-04-06T07:09:01;2.60;99.90
9790;DHT22;4934;50.852;8.098;2023-04-06T07:11:29;2.70;99.90
9790;DHT22;4934;50.852;8.098;2023-04-06T07:13:55;3.00;99.90
9790;DHT22;4934;50.852;8.098;2023-04-06T07:16:20;3.10;99.90
9790;DHT22;4934;50.852;8.098;2023-04-06T07:18:46;3.30;99.90
9790;DHT22;4934;50.852;8.098;2023-04-06T07:21:12;3.40;99.90
9790;DHT22;4934;50.852;8.098;2023-04-06T07:23:37;3.50;99.90
9790;DHT22;4934;50.852;8.098;2023-04-06T07:26:03;3.70;99.90
9790;DHT22;4934;50.852;8.098;2023-04-06T07:28:29;3.80;99.90
9790;DHT22;4934;50.852;8.098;2023-04-06T07:30:54;4.00;99.90
9790;DHT22;4934;50.852;8.098;2023-04-06T07:33:20;4.10;99.90
9790;DHT22;4934;50.852;8.098;2023-04-06T07:35:46;4.30;99.90
9790;DHT22;4934;50.852;8.098;2023-04-06T07:38:12;4.50;99.90
9790;DHT22;4934;50.852;8.098;2023-04-06T07:40:37;4.60;99.90
9790;DHT22;4934;50.852;8.098;2023-04-06T07:43:03;4.80;99.90
9790;DHT22;4934;50.852;8.098;2023-04-06T07:45:29;4.90;99.90
9790;DHT22;4934;50.852;8.098;2023-04-06T07:47:55;5.10;99.90
9790;DHT22;4934;50.852;8.098;2023-04-06T07:50:21;5.30;99.90
9790;DHT22;4934;50.852;8.098;2023-04-06T07:52:46;5.50;99.90
9790;DHT22;4934;50.852;8.098;2023-04-06T07:55:12;5.60;99.90
9790;DHT22;4934;50.852;8.098;2023-04-06T07:57:37;5.80;99.90
9790;DHT22;4934;50.852;8.098;2023-04-06T08:00:03;6.00;99.90
9790;DHT22;4934;50.852;8.098;2023-04-06T08:02:32;6.10;99.90
9790;DHT22;4934;50.852;8.098;2023-04-06T08:04:58;6.30;99.90
9790;DHT22;4934;50.852;8.098;2023-04-06T08:07:24;6.50;99.90
9790;DHT22;4934;50.852;8.098;2023-04-06T08:09:50;6.60;99.90
9790;DHT22;4934;50.852;8.098;2023-04-06T08:12:15;6.80;99.90
9790;DHT22;4934;50.852;8.098;2023-04-06T08:14:41;6.90;99.90
9790;DHT22;4934;50.852;8.098;2023-04-06T08:17:07;7.10;99.90
9790;DHT22;4934;50.852;8.098;2023-04-06T08:19:32;7.30;99.90
9790;DHT22;4934;50.852;8.098;2023-04-06T08:21:58;7.40;99.90
9790;DHT22;4934;50.852;8.098;2023-04-06T08:24:23;7.40;99.90
9790;DHT22;4934;50.852;8.098;2023-04-06T08:26:49;7.60;99.90
9790;DHT22;4934;50.852;8.098;2023-04-06T08:29:15;7.70;99.90
9790;DHT22;4934;50.852;8.098;2023-04-06T08:31:41;7.70;99.90
9790;DHT22;4934;50.852;8.098;2023-04-06T08:34:07;7.90;99.90
9790;DHT22;4934;50.852;8.098;2023-04-06T08:36:32;8.20;99.90
9790;DHT22;4934;50.852;8.098;2023-04-06T08:38:59;8.30;99.90
9790;DHT22;4934;50.852;8.098;2023-04-06T08:41:25;8.40;99.90
9790;DHT22;4934;50.852;8.098;2023-04-06T08:43:53;8.60;99.90
9790;DHT22;4934;50.852;8.098;2023-04-06T08:46:21;8.70;99.90
9790;DHT22;4934;50.852;8.098;2023-04-06T08:48:48;8.80;99.90
9790;DHT22;4934;50.852;8.098;2023-04-06T08:51:15;8.90;99.90
9790;DHT22;4934;50.852;8.098;2023-04-06T08:53:41;9.00;99.90
9790;DHT22;4934;50.852;8.098;2023-04-06T08:56:07;9.00;99.90
9790;DHT22;4934;50.852;8.098;2023-04-06T08:58:39;9.20;99.90
9790;DHT22;4934;50.852;8.098;2023-04-06T09:01:09;9.40;99.90
9790;DHT22;4934;50.852;8.098;2023-04-06T09:03:40;9.50;99.90
9790;DHT22;4934;50.852;8.098;2023-04-06T09:06:06;9.50;99.90
9790;DHT22;4934;50.852;8.098;2023-04-06T09:08:33;9.70;99.90
9790;DHT22;4934;50.852;8.098;2023-04-06T09:11:01;9.80;99.90
9790;DHT22;4934;50.852;8.098;2023-04-06T09:13:27;9.80;99.90
9790;DHT22;4934;50.852;8.098;2023-04-06T09:16:04;9.80;99.90
9790;DHT22;4934;50.852;8.098;2023-04-06T09:18:34;9.90;99.90
9790;DHT22;4934;50.852;8.098;2023-04-06T09:21:05;10.10;99.90
9790;DHT22;4934;50.852;8.098;2023-04-06T09:23:31;10.10;99.90
9790;DHT22;4934;50.852;8.098;2023-04-06T09:28:48;10.40;99.90
9790;DHT22;4934;50.852;8.098;2023-04-06T09:31:31;10.40;99.90
9790;DHT22;4934;50.852;8.098;2023-04-06T09:33:58;10.40;99.90
9790;DHT22;4934;50.852;8.098;2023-04-06T09:36:32;10.50;99.90
9790;DHT22;4934;50.852;8.098;2023-04-06T09:39:02;10.70;99.90
9790;DHT22;4934;50.852;8.098;2023-04-06T09:41:33;10.90;99.90
9790;DHT22;4934;50.852;8.098;2023-04-06T09:44:07;11.00;99.90
9790;DHT22;4934;50.852;8.098;2023-04-06T09:46:39;11.10;99.90
9790;DHT22;4934;50.852;8.098;2023-04-06T09:49:07;11.30;99.90
9790;DHT22;4934;50.852;8.098;2023-04-06T09:51:45;11.30;99.90
9790;DHT22;4934;50.852;8.098;2023-04-06T09:54:11;11.10;99.90
9790;DHT22;4934;50.852;8.098;2023-04-06T09:56:46;11.20;99.90
9790;DHT22;4934;50.852;8.098;2023-04-06T09:59:14;11.30;99.90
9790;DHT22;4934;50.852;8.098;2023-04-06T10:01:41;11.40;99.90
9790;DHT22;4934;50.852;8.098;2023-04-06T10:06:50;11.60;99.90
9790;DHT22;4934;50.852;8.098;2023-04-06T10:09:18;11.70;99.90
9790;DHT22;4934;50.852;8.098;2023-04-06T10:11:48;11.80;99.90
9790;DHT22;4934;50.852;8.098;2023-04-06T10:14:15;11.80;99.90
9790;DHT22;4934;50.852;8.098;2023-04-06T10:16:41;11.90;99.90
9790;DHT22;4934;50.852;8.098;2023-04-06T10:19:15;11.90;99.90
9790;DHT22;4934;50.852;8.098;2023-04-06T10:21:44;12.00;99.90
9790;DHT22;4934;50.852;8.098;2023-04-06T10:24:10;12.10;99.90
9790;DHT22;4934;50.852;8.098;2023-04-06T10:26:37;12.20;99.90
9790;DHT22;4934;50.852;8.098;2023-04-06T10:29:03;12.30;99.90
9790;DHT22;4934;50.852;8.098;2023-04-06T10:31:30;12.50;99.90
9790;DHT22;4934;50.852;8.098;2023-04-06T10:34:00;12.70;99.90
9790;DHT22;4934;50.852;8.098;2023-04-06T10:36:33;13.10;99.90
9790;DHT22;4934;50.852;8.098;2023-04-06T10:39:03;13.40;99.90
9790;DHT22;4934;50.852;8.098;2023-04-06T10:41:33;13.30;97.70
9790;DHT22;4934;50.852;8.098;2023-04-06T10:43:59;13.40;99.40
9790;DHT22;4934;50.852;8.098;2023-04-06T10:46:28;13.40;99.20
9790;DHT22;4934;50.852;8.098;2023-04-06T10:48:54;13.60;98.80
9790;DHT22;4934;50.852;8.098;2023-04-06T10:51:26;13.50;98.70
9790;DHT22;4934;50.852;8.098;2023-04-06T10:53:55;13.70;98.30
9790;DHT22;4934;50.852;8.098;2023-04-06T10:56:24;13.70;98.40
9790;DHT22;4934;50.852;8.098;2023-04-06T10:58:54;13.90;99.20
9790;DHT22;4934;50.852;8.098;2023-04-06T11:01:24;14.00;98.30
9790;DHT22;4934;50.852;8.098;2023-04-06T11:03:56;14.10;97.90
9790;DHT22;4934;50.852;8.098;2023-04-06T11:06:29;14.20;97.50
9790;DHT22;4934;50.852;8.098;2023-04-06T11:08:56;14.20;96.50
9790;DHT22;4934;50.852;8.098;2023-04-06T11:11:23;14.30;94.60
9790;DHT22;4934;50.852;8.098;2023-04-06T11:13:55;14.40;95.20
9790;DHT22;4934;50.852;8.098;2023-04-06T11:16:27;14.60;95.70
9790;DHT22;4934;50.852;8.098;2023-04-06T11:18:58;14.70;94.40
9790;DHT22;4934;50.852;8.098;2023-04-06T11:21:36;14.80;92.80
9790;DHT22;4934;50.852;8.098;2023-04-06T11:24:06;14.60;92.00
9790;DHT22;4934;50.852;8.098;2023-04-06T11:26:31;14.40;91.10
9790;DHT22;4934;50.852;8.098;2023-04-06T11:29:01;14.10;90.60
9790;DHT22;4934;50.852;8.098;2023-04-06T11:31:27;14.00;92.60
9790;DHT22;4934;50.852;8.098;2023-04-06T11:33:59;14.20;93.40
9790;DHT22;4934;50.852;8.098;2023-04-06T11:36:27;14.40;93.10
9790;DHT22;4934;50.852;8.098;2023-04-06T11:38:53;14.60;93.90
9790;DHT22;4934;50.852;8.098;2023-04-06T11:41:23;14.80;92.50
9790;DHT22;4934;50.852;8.098;2023-04-06T11:43:55;14.80;92.70
9790;DHT22;4934;50.852;8.098;2023-04-06T11:46:21;14.70;91.80
9790;DHT22;4934;50.852;8.098;2023-04-06T11:48:46;14.40;89.10
9790;DHT22;4934;50.852;8.098;2023-04-06T11:51:12;14.70;91.30
9790;DHT22;4934;50.852;8.098;2023-04-06T11:53:44;14.90;91.50
9790;DHT22;4934;50.852;8.098;2023-04-06T11:56:26;15.00;90.70
9790;DHT22;4934;50.852;8.098;2023-04-06T11:58:54;15.10;89.10
9790;DHT22;4934;50.852;8.098;2023-04-06T12:01:20;15.10;90.00
9790;DHT22;4934;50.852;8.098;2023-04-06T12:03:46;15.20;90.20
9790;DHT22;4934;50.852;8.098;2023-04-06T12:06:12;15.30;89.70
9790;DHT22;4934;50.852;8.098;2023-04-06T12:08:37;15.40;89.30
9790;DHT22;4934;50.852;8.098;2023-04-06T12:11:03;15.30;85.40
9790;DHT22;4934;50.852;8.098;2023-04-06T12:13:28;15.20;87.50
9790;DHT22;4934;50.852;8.098;2023-04-06T12:15:55;15.30;89.20
9790;DHT22;4934;50.852;8.098;2023-04-06T12:18:20;15.40;88.60
9790;DHT22;4934;50.852;8.098;2023-04-06T12:20:46;15.40;89.40
9790;DHT22;4934;50.852;8.098;2023-04-06T12:23:11;15.40;85.70
9790;DHT22;4934;50.852;8.098;2023-04-06T12:25:39;15.30;86.90
9790;DHT22;4934;50.852;8.098;2023-04-06T12:28:05;15.40;88.60
9790;DHT22;4934;50.852;8.098;2023-04-06T12:30:30;15.30;87.10
9790;DHT22;4934;50.852;8.098;2023-04-06T12:32:57;15.50;90.50
9790;DHT22;4934;50.852;8.098;2023-04-06T12:35:23;15.50;87.90
9790;DHT22;4934;50.852;8.098;2023-04-06T12:37:48;15.40;86.70
9790;DHT22;4934;50.852;8.098;2023-04-06T12:40:15;15.60;90.10
9790;DHT22;4934;50.852;8.098;2023-04-06T12:42:40;15.70;88.30
9790;DHT22;4934;50.852;8.098;2023-04-06T12:45:08;15.90;89.00
9790;DHT22;4934;50.852;8.098;2023-04-06T12:47:33;15.90;86.30
9790;DHT22;4934;50.852;8.098;2023-04-06T12:50:01;16.00;86.60
9790;DHT22;4934;50.852;8.098;2023-04-06T12:52:26;16.10;86.70
9790;DHT22;4934;50.852;8.098;2023-04-06T12:54:55;16.10;86.00
9790;DHT22;4934;50.852;8.098;2023-04-06T12:57:21;16.00;84.50
9790;DHT22;4934;50.852;8.098;2023-04-06T12:59:47;15.90;84.30
9790;DHT22;4934;50.852;8.098;2023-04-06T13:02:12;16.00;85.70
9790;DHT22;4934;50.852;8.098;2023-04-06T13:04:38;16.20;86.90
9790;DHT22;4934;50.852;8.098;2023-04-06T13:07:04;16.20;85.70
9790;DHT22;4934;50.852;8.098;2023-04-06T13:09:30;16.30;85.20
9790;DHT22;4934;50.852;8.098;2023-04-06T13:11:55;16.00;80.10
9790;DHT22;4934;50.852;8.098;2023-04-06T13:14:21;16.00;81.50
9790;DHT22;4934;50.852;8.098;2023-04-06T13:16:47;15.90;80.60
9790;DHT22;4934;50.852;8.098;2023-04-06T13:19:13;16.00;82.50
9790;DHT22;4934;50.852;8.098;2023-04-06T13:21:39;16.00;82.20
9790;DHT22;4934;50.852;8.098;2023-04-06T13:24:05;15.90;82.60
9790;DHT22;4934;50.852;8.098;2023-04-06T13:26:31;15.90;82.60
9790;DHT22;4934;50.852;8.098;2023-04-06T13:28:56;15.90;81.60
9790;DHT22;4934;50.852;8.098;2023-04-06T13:31:22;15.90;85.20
9790;DHT22;4934;50.852;8.098;2023-04-06T13:33:48;15.90;83.50
9790;DHT22;4934;50.852;8.098;2023-04-06T13:36:13;15.70;83.00
9790;DHT22;4934;50.852;8.098;2023-04-06T13:38:39;15.70;80.50
9790;DHT22;4934;50.852;8.098;2023-04-06T13:41:05;15.80;81.00
9790;DHT22;4934;50.852;8.098;2023-04-06T13:43:31;15.70;80.90
9790;DHT22;4934;50.852;8.098;2023-04-06T13:45:57;15.70;81.40
9790;DHT22;4934;50.852;8.098;2023-04-06T13:48:25;15.70;83.10
9790;DHT22;4934;50.852;8.098;2023-04-06T13:50:51;15.80;80.70
9790;DHT22;4934;50.852;8.098;2023-04-06T13:53:17;15.70;79.40
9790;DHT22;4934;50.852;8.098;2023-04-06T13:55:43;15.70;80.90
9790;DHT22;4934;50.852;8.098;2023-04-06T13:58:09;15.70;79.90
9790;DHT22;4934;50.852;8.098;2023-04-06T14:00:35;15.70;80.30
9790;DHT22;4934;50.852;8.098;2023-04-06T14:03:01;15.60;79.40
9790;DHT22;4934;50.852;8.098;2023-04-06T14:05:31;15.50;79.20
9790;DHT22;4934;50.852;8.098;2023-04-06T14:07:56;15.30;79.30
9790;DHT22;4934;50.852;8.098;2023-04-06T14:10:22;15.30;77.50
9790;DHT22;4934;50.852;8.098;2023-04-06T14:12:49;15.30;77.20
9790;DHT22;4934;50.852;8.098;2023-04-06T14:15:14;15.30;77.70
9790;DHT22;4934;50.852;8.098;2023-04-06T14:17:40;15.30;77.70
9790;DHT22;4934;50.852;8.098;2023-04-06T14:20:06;15.30;77.40
9790;DHT22;4934;50.852;8.098;2023-04-06T14:22:32;15.20;76.50
9790;DHT22;4934;50.852;8.098;2023-04-06T14:24:58;15.20;78.50
9790;DHT22;4934;50.852;8.098;2023-04-06T14:27:24;15.20;77.80
9790;DHT22;4934;50.852;8.098;2023-04-06T14:29:50;15.20;76.70
9790;DHT22;4934;50.852;8.098;2023-04-06T14:32:16;15.10;74.90
9790;DHT22;4934;50.852;8.098;2023-04-06T14:34:42;15.00;74.70
9790;DHT22;4934;50.852;8.098;2023-04-06T14:37:07;14.80;72.80
9790;DHT22;4934;50.852;8.098;2023-04-06T14:39:33;14.60;71.60
9790;DHT22;4934;50.852;8.098;2023-04-06T14:41:59;14.50;72.80
9790;DHT22;4934;50.852;8.098;2023-04-06T14:44:25;14.40;73.10
9790;DHT22;4934;50.852;8.098;2023-04-06T14:46:50;14.30;74.60
9790;DHT22;4934;50.852;8.098;2023-04-06T14:49:16;14.30;73.10
9790;DHT22;4934;50.852;8.098;2023-04-06T14:51:41;14.00;73.30
9790;DHT22;4934;50.852;8.098;2023-04-06T14:54:07;14.10;75.80
9790;DHT22;4934;50.852;8.098;2023-04-06T14:56:33;14.10;74.40
9790;DHT22;4934;50.852;8.098;2023-04-06T14:58:59;14.10;75.50
9790;DHT22;4934;50.852;8.098;2023-04-06T15:01:27;14.00;77.60
9790;DHT22;4934;50.852;8.098;2023-04-06T15:03:52;13.90;78.20
9790;DHT22;4934;50.852;8.098;2023-04-06T15:06:18;13.80;75.80
9790;DHT22;4934;50.852;8.098;2023-04-06T15:08:46;13.60;75.10
9790;DHT22;4934;50.852;8.098;2023-04-06T15:11:12;13.60;77.40
9790;DHT22;4934;50.852;8.098;2023-04-06T15:13:39;13.50;77.10
9790;DHT22;4934;50.852;8.098;2023-04-06T15:16:05;13.50;77.50
9790;DHT22;4934;50.852;8.098;2023-04-06T15:18:33;13.50;78.00
9790;DHT22;4934;50.852;8.098;2023-04-06T15:20:59;13.40;79.30
9790;DHT22;4934;50.852;8.098;2023-04-06T15:23:24;13.30;80.00
9790;DHT22;4934;50.852;8.098;2023-04-06T15:25:50;13.40;81.40
9790;DHT22;4934;50.852;8.098;2023-04-06T15:28:16;13.30;81.30
9790;DHT22;4934;50.852;8.098;2023-04-06T15:30:41;13.20;81.20
9790;DHT22;4934;50.852;8.098;2023-04-06T15:33:08;13.20;82.60
9790;DHT22;4934;50.852;8.098;2023-04-06T15:35:34;13.20;83.10
9790;DHT22;4934;50.852;8.098;2023-04-06T15:38:04;13.10;83.60
9790;DHT22;4934;50.852;8.098;2023-04-06T15:40:30;12.90;84.40
9790;DHT22;4934;50.852;8.098;2023-04-06T15:42:56;12.90;85.00
9790;DHT22;4934;50.852;8.098;2023-04-06T15:45:22;12.90;86.10
9790;DHT22;4934;50.852;8.098;2023-04-06T15:47:47;12.70;86.70
9790;DHT22;4934;50.852;8.098;2023-04-06T15:50:13;12.60;87.60
9790;DHT22;4934;50.852;8.098;2023-04-06T15:52:39;12.60;87.50
9790;DHT22;4934;50.852;8.098;2023-04-06T15:55:06;12.50;89.60
9790;DHT22;4934;50.852;8.098;2023-04-06T15:57:33;12.50;91.10
9790;DHT22;4934;50.852;8.098;2023-04-06T15:59:58;12.50;90.80
9790;DHT22;4934;50.852;8.098;2023-04-06T16:02:24;12.30;91.00
9790;DHT22;4934;50.852;8.098;2023-04-06T16:04:57;12.30;91.20